sensor_id;sensor_type;location;lat;lon;timestamp;P1;durP1;ratioP1;P2;durP2;ratioP2
35990;SDS011;22064;42.672;23.282;2022-09-24T00:01:07;20.42;;;10.80;;
35990;SDS011;22064;42.672;23.282;2022-09-24T00:03:37;24.42;;;11.63;;
35990;SDS011;22064;42.672;23.282;2022-09-24T00:06:03;22.80;;;12.20;;
35990;SDS011;22064;42.672;23.282;2022-09-24T00:08:30;22.65;;;11.30;;
35990;SDS011;22064;42.672;23.282;2022-09-24T00:10:59;21.95;;;10.88;;
35990;SDS011;22064;42.672;23.282;2022-09-24T00:13:26;25.45;;;12.32;;
35990;SDS011;22064;42.672;23.282;2022-09-24T00:15:52;20.17;;;12.23;;
35990;SDS011;22064;42.672;23.282;2022-09-24T00:18:17;24.58;;;11.02;;
35990;SDS011;22064;42.672;23.282;2022-09-24T00:20:45;22.30;;;11.40;;
35990;SDS011;22064;42.672;23.282;2022-09-24T00:23:11;20.30;;;10.73;;
35990;SDS011;22064;42.672;23.282;2022-09-24T00:25:43;24.23;;;11.55;;
35990;SDS011;22064;42.672;23.282;2022-09-24T00:28:28;21.17;;;11.48;;
35990;SDS011;22064;42.672;23.282;2022-09-24T00:30:55;20.50;;;10.48;;
35990;SDS011;22064;42.672;23.282;2022-09-24T00:33:24;19.95;;;10.85;;
35990;SDS011;22064;42.672;23.282;2022-09-24T00:35:52;19.92;;;10.02;;
35990;SDS011;22064;42.672;23.282;2022-09-24T00:38:22;19.98;;;10.13;;
35990;SDS011;22064;42.672;23.282;2022-09-24T00:40:49;18.35;;;9.02;;
35990;SDS011;22064;42.672;23.282;2022-09-24T00:43:28;20.92;;;11.45;;
35990;SDS011;22064;42.672;23.282;2022-09-24T00:48:45;19.50;;;10.25;;
35990;SDS011;22064;42.672;23.282;2022-09-24T00:51:14;18.40;;;9.48;;
35990;SDS011;22064;42.672;23.282;2022-09-24T00:53:42;19.95;;;9.00;;
35990;SDS011;22064;42.672;23.282;2022-09-24T00:56:10;18.88;;;9.27;;
35990;SDS011;22064;42.672;23.282;2022-09-24T00:58:43;17.50;;;8.68;;
35990;SDS011;22064;42.672;23.282;2022-09-24T01:01:12;17.23;;;8.30;;
35990;SDS011;22064;42.672;23.282;2022-09-24T01:03:39;20.70;;;8.73;;
35990;SDS011;22064;42.672;23.282;2022-09-24T01:06:09;16.63;;;8.05;;
35990;SDS011;22064;42.672;23.282;2022-09-24T01:08:36;14.50;;;7.78;;
35990;SDS011;22064;42.672;23.282;2022-09-24T01:14:02;17.52;;;8.82;;
35990;SDS011;22064;42.672;23.282;2022-09-24T01:16:33;18.67;;;9.18;;
35990;SDS011;22064;42.672;23.282;2022-09-24T01:22:19;17.23;;;8.90;;
35990;SDS011;22064;42.672;23.282;2022-09-24T01:27:50;21.30;;;9.90;;
35990;SDS011;22064;42.672;23.282;2022-09-24T01:30:26;20.65;;;10.60;;
35990;SDS011;22064;42.672;23.282;2022-09-24T01:33:00;23.40;;;11.77;;
35990;SDS011;22064;42.672;23.282;2022-09-24T01:35:39;23.13;;;11.15;;
35990;SDS011;22064;42.672;23.282;2022-09-24T01:38:14;24.30;;;12.07;;
35990;SDS011;22064;42.672;23.282;2022-09-24T01:40:43;23.52;;;11.35;;
35990;SDS011;22064;42.672;23.282;2022-09-24T01:43:10;27.83;;;14.20;;
35990;SDS011;22064;42.672;23.282;2022-09-24T01:45:38;25.25;;;13.32;;
35990;SDS011;22064;42.672;23.282;2022-09-24T01:48:04;24.50;;;13.30;;
35990;SDS011;22064;42.672;23.282;2022-09-24T01:50:37;25.38;;;13.80;;
35990;SDS011;22064;42.672;23.282;2022-09-24T01:53:28;28.25;;;14.45;;
35990;SDS011;22064;42.672;23.282;2022-09-24T01:56:07;26.02;;;14.15;;
35990;SDS011;22064;42.672;23.282;2022-09-24T01:58:43;25.70;;;14.73;;
35990;SDS011;22064;42.672;23.282;2022-09-24T02:01:16;28.40;;;13.82;;
35990;SDS011;22064;42.672;23.282;2022-09-24T02:03:49;27.20;;;14.18;;
35990;SDS011;22064;42.672;23.282;2022-09-24T02:08:54;26.15;;;13.60;;
35990;SDS011;22064;42.672;23.282;2022-09-24T02:11:21;29.58;;;15.13;;
35990;SDS011;22064;42.672;23.282;2022-09-24T02:16:27;26.05;;;13.98;;
35990;SDS011;22064;42.672;23.282;2022-09-24T02:18:57;26.17;;;13.98;;
35990;SDS011;22064;42.672;23.282;2022-09-24T02:21:28;26.27;;;14.20;;
35990;SDS011;22064;42.672;23.282;2022-09-24T02:23:58;28.08;;;15.63;;
35990;SDS011;22064;42.672;23.282;2022-09-24T02:26:30;25.75;;;14.43;;
35990;SDS011;22064;42.672;23.282;2022-09-24T02:28:55;27.40;;;14.98;;
35990;SDS011;22064;42.672;23.282;2022-09-24T02:31:27;28.33;;;14.23;;
35990;SDS011;22064;42.672;23.282;2022-09-24T02:34:00;27.15;;;14.60;;
35990;SDS011;22064;42.672;23.282;2022-09-24T02:36:45;27.20;;;14.90;;
35990;SDS011;22064;42.672;23.282;2022-09-24T02:39:12;27.45;;;14.50;;
35990;SDS011;22064;42.672;23.282;2022-09-24T02:41:37;28.30;;;15.30;;
35990;SDS011;22064;42.672;23.282;2022-09-24T02:44:06;28.80;;;14.63;;
35990;SDS011;22064;42.672;23.282;2022-09-24T02:46:31;27.00;;;15.10;;
35990;SDS011;22064;42.672;23.282;2022-09-24T02:48:57;28.75;;;15.93;;
35990;SDS011;22064;42.672;23.282;2022-09-24T02:51:22;29.27;;;15.93;;
35990;SDS011;22064;42.672;23.282;2022-09-24T02:53:48;30.27;;;15.85;;
35990;SDS011;22064;42.672;23.282;2022-09-24T02:56:14;29.98;;;15.77;;
35990;SDS011;22064;42.672;23.282;2022-09-24T02:58:39;26.70;;;13.95;;
35990;SDS011;22064;42.672;23.282;2022-09-24T03:01:05;28.33;;;14.20;;
35990;SDS011;22064;42.672;23.282;2022-09-24T03:03:31;30.75;;;14.98;;
35990;SDS011;22064;42.672;23.282;2022-09-24T03:05:57;27.65;;;14.77;;
35990;SDS011;22064;42.672;23.282;2022-09-24T03:08:23;25.48;;;13.90;;
35990;SDS011;22064;42.672;23.282;2022-09-24T03:10:49;24.23;;;13.57;;
35990;SDS011;22064;42.672;23.282;2022-09-24T03:13:18;26.65;;;13.73;;
35990;SDS011;22064;42.672;23.282;2022-09-24T03:15:44;27.27;;;13.75;;
35990;SDS011;22064;42.672;23.282;2022-09-24T03:18:10;28.80;;;13.75;;
35990;SDS011;22064;42.672;23.282;2022-09-24T03:20:36;29.90;;;13.35;;
35990;SDS011;22064;42.672;23.282;2022-09-24T03:23:02;25.75;;;14.15;;
35990;SDS011;22064;42.672;23.282;2022-09-24T03:25:27;26.85;;;13.85;;
35990;SDS011;22064;42.672;23.282;2022-09-24T03:27:53;28.55;;;14.05;;
35990;SDS011;22064;42.672;23.282;2022-09-24T03:30:18;28.05;;;13.90;;
35990;SDS011;22064;42.672;23.282;2022-09-24T03:33:02;28.67;;;13.60;;
35990;SDS011;22064;42.672;23.282;2022-09-24T03:35:27;24.77;;;12.57;;
35990;SDS011;22064;42.672;23.282;2022-09-24T03:37:53;25.77;;;12.73;;
35990;SDS011;22064;42.672;23.282;2022-09-24T03:40:18;25.70;;;12.95;;
35990;SDS011;22064;42.672;23.282;2022-09-24T03:42:44;25.35;;;13.40;;
35990;SDS011;22064;42.672;23.282;2022-09-24T03:45:09;29.00;;;13.40;;
35990;SDS011;22064;42.672;23.282;2022-09-24T03:47:35;26.52;;;12.57;;
35990;SDS011;22064;42.672;23.282;2022-09-24T03:50:01;25.77;;;12.80;;
35990;SDS011;22064;42.672;23.282;2022-09-24T03:52:27;25.83;;;13.18;;
35990;SDS011;22064;42.672;23.282;2022-09-24T03:54:52;31.92;;;13.10;;
35990;SDS011;22064;42.672;23.282;2022-09-24T03:57:18;31.20;;;16.90;;
35990;SDS011;22064;42.672;23.282;2022-09-24T03:59:43;29.33;;;16.60;;
35990;SDS011;22064;42.672;23.282;2022-09-24T04:02:10;26.08;;;13.43;;
35990;SDS011;22064;42.672;23.282;2022-09-24T04:04:36;27.85;;;13.52;;
35990;SDS011;22064;42.672;23.282;2022-09-24T04:07:02;23.35;;;12.35;;
35990;SDS011;22064;42.672;23.282;2022-09-24T04:09:28;24.13;;;12.15;;
35990;SDS011;22064;42.672;23.282;2022-09-24T04:11:54;25.30;;;12.18;;
35990;SDS011;22064;42.672;23.282;2022-09-24T04:14:20;25.63;;;13.27;;
35990;SDS011;22064;42.672;23.282;2022-09-24T04:16:46;24.33;;;12.65;;
35990;SDS011;22064;42.672;23.282;2022-09-24T04:19:12;24.60;;;13.00;;
35990;SDS011;22064;42.672;23.282;2022-09-24T04:21:46;25.10;;;12.40;;
35990;SDS011;22064;42.672;23.282;2022-09-24T04:24:11;23.30;;;11.80;;
35990;SDS011;22064;42.672;23.282;2022-09-24T04:26:37;24.35;;;12.68;;
35990;SDS011;22064;42.672;23.282;2022-09-24T04:29:02;24.73;;;12.48;;
35990;SDS011;22064;42.672;23.282;2022-09-24T04:31:29;24.23;;;12.20;;
35990;SDS011;22064;42.672;23.282;2022-09-24T04:33:56;28.70;;;13.55;;
35990;SDS011;22064;42.672;23.282;2022-09-24T04:36:22;27.88;;;13.82;;
35990;SDS011;22064;42.672;23.282;2022-09-24T04:38:47;24.48;;;13.07;;
35990;SDS011;22064;42.672;23.282;2022-09-24T04:41:13;33.42;;;14.38;;
35990;SDS011;22064;42.672;23.282;2022-09-24T04:43:42;25.27;;;13.07;;
35990;SDS011;22064;42.672;23.282;2022-09-24T04:46:11;27.20;;;15.13;;
35990;SDS011;22064;42.672;23.282;2022-09-24T04:48:37;31.65;;;15.77;;
35990;SDS011;22064;42.672;23.282;2022-09-24T04:51:07;31.35;;;15.77;;
35990;SDS011;22064;42.672;23.282;2022-09-24T04:53:35;30.73;;;15.27;;
35990;SDS011;22064;42.672;23.282;2022-09-24T04:56:04;26.83;;;14.43;;
35990;SDS011;22064;42.672;23.282;2022-09-24T04:58:35;28.67;;;14.60;;
35990;SDS011;22064;42.672;23.282;2022-09-24T05:01:01;26.50;;;13.38;;
35990;SDS011;22064;42.672;23.282;2022-09-24T05:03:28;26.25;;;13.68;;
35990;SDS011;22064;42.672;23.282;2022-09-24T05:05:53;28.40;;;14.35;;
35990;SDS011;22064;42.672;23.282;2022-09-24T05:08:19;26.30;;;13.02;;
35990;SDS011;22064;42.672;23.282;2022-09-24T05:10:45;25.70;;;13.18;;
35990;SDS011;22064;42.672;23.282;2022-09-24T05:13:10;27.52;;;13.18;;
35990;SDS011;22064;42.672;23.282;2022-09-24T05:15:36;24.85;;;11.90;;
35990;SDS011;22064;42.672;23.282;2022-09-24T05:18:01;26.95;;;12.40;;
35990;SDS011;22064;42.672;23.282;2022-09-24T05:20:27;26.15;;;12.60;;
35990;SDS011;22064;42.672;23.282;2022-09-24T05:22:52;23.60;;;11.30;;
35990;SDS011;22064;42.672;23.282;2022-09-24T05:25:19;23.08;;;11.35;;
35990;SDS011;22064;42.672;23.282;2022-09-24T05:27:46;24.90;;;11.30;;
35990;SDS011;22064;42.672;23.282;2022-09-24T05:30:13;24.27;;;12.50;;
35990;SDS011;22064;42.672;23.282;2022-09-24T05:32:39;22.85;;;12.40;;
35990;SDS011;22064;42.672;23.282;2022-09-24T05:35:05;22.35;;;11.70;;
35990;SDS011;22064;42.672;23.282;2022-09-24T05:37:32;25.10;;;11.90;;
35990;SDS011;22064;42.672;23.282;2022-09-24T05:39:59;21.08;;;11.07;;
35990;SDS011;22064;42.672;23.282;2022-09-24T05:42:44;21.58;;;11.70;;
35990;SDS011;22064;42.672;23.282;2022-09-24T05:45:11;21.48;;;11.40;;
35990;SDS011;22064;42.672;23.282;2022-09-24T05:47:38;21.15;;;11.82;;
35990;SDS011;22064;42.672;23.282;2022-09-24T05:50:03;23.90;;;11.57;;
35990;SDS011;22064;42.672;23.282;2022-09-24T05:52:29;20.55;;;11.30;;
35990;SDS011;22064;42.672;23.282;2022-09-24T05:54:54;22.98;;;11.85;;
35990;SDS011;22064;42.672;23.282;2022-09-24T05:57:20;22.17;;;12.13;;
35990;SDS011;22064;42.672;23.282;2022-09-24T05:59:46;21.45;;;11.48;;
35990;SDS011;22064;42.672;23.282;2022-09-24T06:02:11;22.63;;;12.40;;
35990;SDS011;22064;42.672;23.282;2022-09-24T06:04:37;23.83;;;12.60;;
35990;SDS011;22064;42.672;23.282;2022-09-24T06:07:02;24.00;;;11.07;;
35990;SDS011;22064;42.672;23.282;2022-09-24T06:09:27;20.17;;;9.73;;
35990;SDS011;22064;42.672;23.282;2022-09-24T06:11:53;21.13;;;10.68;;
35990;SDS011;22064;42.672;23.282;2022-09-24T06:14:18;20.15;;;10.98;;
35990;SDS011;22064;42.672;23.282;2022-09-24T06:16:44;22.25;;;12.23;;
35990;SDS011;22064;42.672;23.282;2022-09-24T06:19:10;21.08;;;11.52;;
35990;SDS011;22064;42.672;23.282;2022-09-24T06:21:35;22.45;;;11.82;;
35990;SDS011;22064;42.672;23.282;2022-09-24T06:24:01;17.67;;;9.88;;
35990;SDS011;22064;42.672;23.282;2022-09-24T06:26:27;15.70;;;9.23;;
35990;SDS011;22064;42.672;23.282;2022-09-24T06:28:53;20.73;;;9.95;;
35990;SDS011;22064;42.672;23.282;2022-09-24T06:31:19;20.27;;;10.13;;
35990;SDS011;22064;42.672;23.282;2022-09-24T06:33:45;19.58;;;10.43;;
35990;SDS011;22064;42.672;23.282;2022-09-24T06:36:10;18.13;;;9.68;;
35990;SDS011;22064;42.672;23.282;2022-09-24T06:38:36;19.27;;;9.95;;
35990;SDS011;22064;42.672;23.282;2022-09-24T06:41:04;18.58;;;10.27;;
35990;SDS011;22064;42.672;23.282;2022-09-24T06:43:30;21.05;;;10.05;;
35990;SDS011;22064;42.672;23.282;2022-09-24T06:45:57;19.83;;;10.25;;
35990;SDS011;22064;42.672;23.282;2022-09-24T06:48:23;18.80;;;9.93;;
35990;SDS011;22064;42.672;23.282;2022-09-24T06:50:50;21.45;;;9.25;;
35990;SDS011;22064;42.672;23.282;2022-09-24T06:53:16;22.17;;;11.02;;
35990;SDS011;22064;42.672;23.282;2022-09-24T06:55:42;20.15;;;10.15;;
35990;SDS011;22064;42.672;23.282;2022-09-24T06:58:10;19.63;;;9.27;;
35990;SDS011;22064;42.672;23.282;2022-09-24T07:00:40;19.55;;;10.48;;
35990;SDS011;22064;42.672;23.282;2022-09-24T07:03:08;21.52;;;11.45;;
35990;SDS011;22064;42.672;23.282;2022-09-24T07:05:40;18.02;;;10.77;;
35990;SDS011;22064;42.672;23.282;2022-09-24T07:08:06;18.42;;;9.93;;
35990;SDS011;22064;42.672;23.282;2022-09-24T07:10:32;19.25;;;10.07;;
35990;SDS011;22064;42.672;23.282;2022-09-24T07:12:57;21.92;;;11.25;;
35990;SDS011;22064;42.672;23.282;2022-09-24T07:15:23;17.98;;;10.30;;
35990;SDS011;22064;42.672;23.282;2022-09-24T07:17:53;20.05;;;10.75;;
35990;SDS011;22064;42.672;23.282;2022-09-24T07:20:19;21.65;;;10.88;;
35990;SDS011;22064;42.672;23.282;2022-09-24T07:22:45;21.08;;;10.10;;
35990;SDS011;22064;42.672;23.282;2022-09-24T07:25:10;19.05;;;10.15;;
35990;SDS011;22064;42.672;23.282;2022-09-24T07:27:37;19.73;;;10.23;;
35990;SDS011;22064;42.672;23.282;2022-09-24T07:30:07;18.40;;;9.95;;
35990;SDS011;22064;42.672;23.282;2022-09-24T07:32:33;19.25;;;10.70;;
35990;SDS011;22064;42.672;23.282;2022-09-24T07:34:59;23.42;;;10.65;;
35990;SDS011;22064;42.672;23.282;2022-09-24T07:37:24;18.42;;;9.80;;
35990;SDS011;22064;42.672;23.282;2022-09-24T07:39:50;17.08;;;9.32;;
35990;SDS011;22064;42.672;23.282;2022-09-24T07:42:15;21.10;;;10.05;;
35990;SDS011;22064;42.672;23.282;2022-09-24T07:44:41;20.00;;;10.18;;
35990;SDS011;22064;42.672;23.282;2022-09-24T07:47:06;19.10;;;9.98;;
35990;SDS011;22064;42.672;23.282;2022-09-24T07:49:32;20.80;;;9.70;;
35990;SDS011;22064;42.672;23.282;2022-09-24T07:51:58;18.75;;;10.43;;
35990;SDS011;22064;42.672;23.282;2022-09-24T07:54:24;19.83;;;10.50;;
35990;SDS011;22064;42.672;23.282;2022-09-24T07:56:50;21.17;;;10.20;;
35990;SDS011;22064;42.672;23.282;2022-09-24T07:59:16;19.23;;;10.20;;
35990;SDS011;22064;42.672;23.282;2022-09-24T08:01:43;22.50;;;10.15;;
35990;SDS011;22064;42.672;23.282;2022-09-24T08:04:09;19.15;;;10.18;;
35990;SDS011;22064;42.672;23.282;2022-09-24T08:06:35;17.52;;;9.98;;
35990;SDS011;22064;42.672;23.282;2022-09-24T08:09:01;18.88;;;10.43;;
35990;SDS011;22064;42.672;23.282;2022-09-24T08:11:27;18.48;;;10.07;;
35990;SDS011;22064;42.672;23.282;2022-09-24T08:13:54;22.98;;;10.70;;
35990;SDS011;22064;42.672;23.282;2022-09-24T08:16:20;19.67;;;10.13;;
35990;SDS011;22064;42.672;23.282;2022-09-24T08:18:46;18.70;;;9.80;;
35990;SDS011;22064;42.672;23.282;2022-09-24T08:21:11;17.65;;;9.25;;
35990;SDS011;22064;42.672;23.282;2022-09-24T08:23:39;22.42;;;10.80;;
35990;SDS011;22064;42.672;23.282;2022-09-24T08:26:05;19.88;;;10.32;;
35990;SDS011;22064;42.672;23.282;2022-09-24T08:28:31;21.45;;;10.93;;
35990;SDS011;22064;42.672;23.282;2022-09-24T08:31:00;19.30;;;10.15;;
35990;SDS011;22064;42.672;23.282;2022-09-24T08:33:28;19.90;;;11.02;;
35990;SDS011;22064;42.672;23.282;2022-09-24T08:35:59;16.88;;;10.20;;
35990;SDS011;22064;42.672;23.282;2022-09-24T08:38:26;19.65;;;10.35;;
35990;SDS011;22064;42.672;23.282;2022-09-24T08:40:54;18.45;;;10.13;;
35990;SDS011;22064;42.672;23.282;2022-09-24T08:43:33;17.05;;;9.48;;
35990;SDS011;22064;42.672;23.282;2022-09-24T08:46:23;19.33;;;10.15;;
35990;SDS011;22064;42.672;23.282;2022-09-24T08:49:11;20.80;;;9.90;;
35990;SDS011;22064;42.672;23.282;2022-09-24T08:51:47;18.30;;;10.30;;
35990;SDS011;22064;42.672;23.282;2022-09-24T08:56:49;20.13;;;9.80;;
35990;SDS011;22064;42.672;23.282;2022-09-24T08:59:26;18.98;;;9.27;;
35990;SDS011;22064;42.672;23.282;2022-09-24T09:05:00;27.80;;;12.57;;
35990;SDS011;22064;42.672;23.282;2022-09-24T09:10:29;39.10;;;15.38;;
35990;SDS011;22064;42.672;23.282;2022-09-24T09:13:01;39.40;;;14.70;;
35990;SDS011;22064;42.672;23.282;2022-09-24T09:15:42;24.52;;;12.35;;
35990;SDS011;22064;42.672;23.282;2022-09-24T09:20:44;18.13;;;8.48;;
35990;SDS011;22064;42.672;23.282;2022-09-24T09:23:12;16.80;;;8.95;;
35990;SDS011;22064;42.672;23.282;2022-09-24T09:25:57;18.75;;;8.25;;
35990;SDS011;22064;42.672;23.282;2022-09-24T09:28:27;16.88;;;8.43;;
35990;SDS011;22064;42.672;23.282;2022-09-24T09:39:43;21.55;;;8.93;;
35990;SDS011;22064;42.672;23.282;2022-09-24T09:42:31;16.05;;;7.97;;
35990;SDS011;22064;42.672;23.282;2022-09-24T09:45:54;15.93;;;8.27;;
35990;SDS011;22064;42.672;23.282;2022-09-24T09:47:56;17.00;;;8.75;;
35990;SDS011;22064;42.672;23.282;2022-09-24T09:52:55;16.80;;;8.65;;
35990;SDS011;22064;42.672;23.282;2022-09-24T09:55:22;14.60;;;7.30;;
35990;SDS011;22064;42.672;23.282;2022-09-24T09:57:52;12.23;;;6.35;;
35990;SDS011;22064;42.672;23.282;2022-09-24T10:00:25;7.63;;;4.25;;
35990;SDS011;22064;42.672;23.282;2022-09-24T10:02:57;9.05;;;4.38;;
35990;SDS011;22064;42.672;23.282;2022-09-24T10:05:22;8.48;;;4.00;;
35990;SDS011;22064;42.672;23.282;2022-09-24T10:07:53;6.78;;;3.45;;
35990;SDS011;22064;42.672;23.282;2022-09-24T10:10:22;4.05;;;2.80;;
35990;SDS011;22064;42.672;23.282;2022-09-24T10:12:53;8.02;;;3.10;;
35990;SDS011;22064;42.672;23.282;2022-09-24T10:15:30;7.10;;;2.90;;
35990;SDS011;22064;42.672;23.282;2022-09-24T10:17:55;5.03;;;3.00;;
35990;SDS011;22064;42.672;23.282;2022-09-24T10:20:28;4.18;;;2.80;;
35990;SDS011;22064;42.672;23.282;2022-09-24T10:23:00;7.75;;;3.00;;
35990;SDS011;22064;42.672;23.282;2022-09-24T10:25:29;5.00;;;2.78;;
35990;SDS011;22064;42.672;23.282;2022-09-24T10:27:57;7.68;;;3.05;;
35990;SDS011;22064;42.672;23.282;2022-09-24T10:33:39;6.22;;;3.00;;
35990;SDS011;22064;42.672;23.282;2022-09-24T10:39:14;3.50;;;2.80;;
35990;SDS011;22064;42.672;23.282;2022-09-24T10:41:46;3.53;;;2.58;;
35990;SDS011;22064;42.672;23.282;2022-09-24T10:44:12;5.05;;;2.80;;
35990;SDS011;22064;42.672;23.282;2022-09-24T10:57:30;3.17;;;2.78;;
35990;SDS011;22064;42.672;23.282;2022-09-24T11:00:08;4.70;;;2.83;;
35990;SDS011;22064;42.672;23.282;2022-09-24T11:05:36;4.65;;;2.60;;
35990;SDS011;22064;42.672;23.282;2022-09-24T11:25:02;5.03;;;3.10;;
35990;SDS011;22064;42.672;23.282;2022-09-24T11:27:54;5.32;;;3.25;;
35990;SDS011;22064;42.672;23.282;2022-09-24T11:30:34;9.38;;;4.50;;
35990;SDS011;22064;42.672;23.282;2022-09-24T11:33:36;4.57;;;3.22;;
35990;SDS011;22064;42.672;23.282;2022-09-24T11:49:47;3.35;;;2.47;;
35990;SDS011;22064;42.672;23.282;2022-09-24T11:52:28;3.78;;;2.92;;
35990;SDS011;22064;42.672;23.282;2022-09-24T11:57:32;8.65;;;3.38;;
35990;SDS011;22064;42.672;23.282;2022-09-24T12:00:03;5.93;;;2.97;;
35990;SDS011;22064;42.672;23.282;2022-09-24T12:05:36;4.85;;;2.70;;
35990;SDS011;22064;42.672;23.282;2022-09-24T12:11:02;4.57;;;2.85;;
35990;SDS011;22064;42.672;23.282;2022-09-24T12:13:44;5.07;;;2.60;;
35990;SDS011;22064;42.672;23.282;2022-09-24T12:16:20;3.17;;;2.60;;
35990;SDS011;22064;42.672;23.282;2022-09-24T12:19:04;5.55;;;3.00;;
35990;SDS011;22064;42.672;23.282;2022-09-24T12:21:37;7.50;;;2.83;;
35990;SDS011;22064;42.672;23.282;2022-09-24T12:24:08;7.10;;;3.35;;
35990;SDS011;22064;42.672;23.282;2022-09-24T12:26:37;6.63;;;3.30;;
35990;SDS011;22064;42.672;23.282;2022-09-24T12:32:27;4.40;;;3.47;;
35990;SDS011;22064;42.672;23.282;2022-09-24T12:35:30;3.80;;;2.67;;
35990;SDS011;22064;42.672;23.282;2022-09-24T12:43:14;8.23;;;3.13;;
35990;SDS011;22064;42.672;23.282;2022-09-24T12:45:59;4.53;;;2.83;;
35990;SDS011;22064;42.672;23.282;2022-09-24T12:48:27;4.90;;;3.10;;
35990;SDS011;22064;42.672;23.282;2022-09-24T12:50:56;6.30;;;3.28;;
35990;SDS011;22064;42.672;23.282;2022-09-24T12:53:23;5.38;;;3.03;;
35990;SDS011;22064;42.672;23.282;2022-09-24T12:56:03;3.10;;;2.80;;
35990;SDS011;22064;42.672;23.282;2022-09-24T12:58:40;4.72;;;3.15;;
35990;SDS011;22064;42.672;23.282;2022-09-24T13:06:40;4.57;;;2.80;;
35990;SDS011;22064;42.672;23.282;2022-09-24T13:14:38;3.88;;;2.70;;
35990;SDS011;22064;42.672;23.282;2022-09-24T13:17:07;4.00;;;3.30;;
35990;SDS011;22064;42.672;23.282;2022-09-24T13:19:37;3.40;;;2.85;;
35990;SDS011;22064;42.672;23.282;2022-09-24T13:30:02;5.15;;;2.58;;
35990;SDS011;22064;42.672;23.282;2022-09-24T13:35:19;4.35;;;2.72;;
35990;SDS011;22064;42.672;23.282;2022-09-24T13:38:22;2.75;;;2.40;;
35990;SDS011;22064;42.672;23.282;2022-09-24T13:40:48;4.07;;;2.88;;
35990;SDS011;22064;42.672;23.282;2022-09-24T13:46:06;5.85;;;2.97;;
35990;SDS011;22064;42.672;23.282;2022-09-24T13:51:13;3.25;;;2.72;;
35990;SDS011;22064;42.672;23.282;2022-09-24T13:56:16;4.78;;;2.58;;
35990;SDS011;22064;42.672;23.282;2022-09-24T13:58:43;4.57;;;2.80;;
35990;SDS011;22064;42.672;23.282;2022-09-24T14:04:00;4.80;;;2.53;;
35990;SDS011;22064;42.672;23.282;2022-09-24T14:06:36;4.18;;;2.70;;
35990;SDS011;22064;42.672;23.282;2022-09-24T14:09:25;3.20;;;2.70;;
35990;SDS011;22064;42.672;23.282;2022-09-24T14:11:54;4.00;;;2.90;;
35990;SDS011;22064;42.672;23.282;2022-09-24T14:14:23;3.13;;;2.55;;
35990;SDS011;22064;42.672;23.282;2022-09-24T14:16:50;4.35;;;2.63;;
35990;SDS011;22064;42.672;23.282;2022-09-24T14:19:19;3.92;;;3.10;;
35990;SDS011;22064;42.672;23.282;2022-09-24T14:24:24;3.95;;;2.90;;
35990;SDS011;22064;42.672;23.282;2022-09-24T14:26:54;4.93;;;2.60;;
35990;SDS011;22064;42.672;23.282;2022-09-24T14:29:26;3.20;;;2.90;;
35990;SDS011;22064;42.672;23.282;2022-09-24T14:31:59;5.80;;;3.13;;
35990;SDS011;22064;42.672;23.282;2022-09-24T14:34:37;4.20;;;2.78;;
35990;SDS011;22064;42.672;23.282;2022-09-24T14:37:06;5.07;;;3.05;;
35990;SDS011;22064;42.672;23.282;2022-09-24T14:39:37;5.60;;;2.80;;
35990;SDS011;22064;42.672;23.282;2022-09-24T14:42:10;4.95;;;2.88;;
35990;SDS011;22064;42.672;23.282;2022-09-24T14:44:45;3.53;;;2.90;;
35990;SDS011;22064;42.672;23.282;2022-09-24T14:47:23;5.65;;;3.50;;
35990;SDS011;22064;42.672;23.282;2022-09-24T14:49:56;5.18;;;3.13;;
35990;SDS011;22064;42.672;23.282;2022-09-24T14:55:09;6.85;;;3.97;;
35990;SDS011;22064;42.672;23.282;2022-09-24T14:57:41;5.40;;;3.85;;
35990;SDS011;22064;42.672;23.282;2022-09-24T15:02:42;7.10;;;3.45;;
35990;SDS011;22064;42.672;23.282;2022-09-24T15:05:12;5.88;;;3.40;;
35990;SDS011;22064;42.672;23.282;2022-09-24T15:07:38;8.68;;;3.65;;
35990;SDS011;22064;42.672;23.282;2022-09-24T15:10:04;8.60;;;3.90;;
35990;SDS011;22064;42.672;23.282;2022-09-24T15:12:31;7.43;;;4.10;;
35990;SDS011;22064;42.672;23.282;2022-09-24T15:15:03;7.10;;;3.55;;
35990;SDS011;22064;42.672;23.282;2022-09-24T15:17:50;5.32;;;3.55;;
35990;SDS011;22064;42.672;23.282;2022-09-24T15:20:16;5.63;;;3.67;;
35990;SDS011;22064;42.672;23.282;2022-09-24T15:22:41;6.88;;;3.97;;
35990;SDS011;22064;42.672;23.282;2022-09-24T15:25:07;5.35;;;3.60;;
35990;SDS011;22064;42.672;23.282;2022-09-24T15:27:35;7.63;;;3.83;;
35990;SDS011;22064;42.672;23.282;2022-09-24T15:30:03;8.30;;;4.10;;
35990;SDS011;22064;42.672;23.282;2022-09-24T15:32:32;9.98;;;4.28;;
35990;SDS011;22064;42.672;23.282;2022-09-24T15:37:32;10.57;;;4.65;;
35990;SDS011;22064;42.672;23.282;2022-09-24T15:40:00;8.82;;;4.18;;
35990;SDS011;22064;42.672;23.282;2022-09-24T15:42:31;8.05;;;4.13;;
35990;SDS011;22064;42.672;23.282;2022-09-24T15:44:57;6.97;;;3.55;;
35990;SDS011;22064;42.672;23.282;2022-09-24T15:47:23;5.93;;;3.83;;
35990;SDS011;22064;42.672;23.282;2022-09-24T15:49:49;7.80;;;4.00;;
35990;SDS011;22064;42.672;23.282;2022-09-24T15:54:40;7.10;;;4.30;;
35990;SDS011;22064;42.672;23.282;2022-09-24T15:57:06;7.43;;;4.15;;
35990;SDS011;22064;42.672;23.282;2022-09-24T15:59:36;11.93;;;4.80;;
35990;SDS011;22064;42.672;23.282;2022-09-24T16:02:02;8.13;;;4.00;;
35990;SDS011;22064;42.672;23.282;2022-09-24T16:04:36;10.10;;;4.15;;
35990;SDS011;22064;42.672;23.282;2022-09-24T16:07:01;6.22;;;3.90;;
35990;SDS011;22064;42.672;23.282;2022-09-24T16:09:27;7.43;;;3.97;;
35990;SDS011;22064;42.672;23.282;2022-09-24T16:11:52;7.90;;;4.10;;
35990;SDS011;22064;42.672;23.282;2022-09-24T16:14:19;10.20;;;3.58;;
35990;SDS011;22064;42.672;23.282;2022-09-24T16:16:44;8.20;;;4.03;;
35990;SDS011;22064;42.672;23.282;2022-09-24T16:19:10;6.63;;;3.85;;
35990;SDS011;22064;42.672;23.282;2022-09-24T16:21:36;6.47;;;4.10;;
35990;SDS011;22064;42.672;23.282;2022-09-24T16:24:02;8.25;;;4.20;;
35990;SDS011;22064;42.672;23.282;2022-09-24T16:26:27;10.70;;;4.90;;
35990;SDS011;22064;42.672;23.282;2022-09-24T16:28:53;10.98;;;4.32;;
35990;SDS011;22064;42.672;23.282;2022-09-24T16:31:19;10.07;;;5.00;;
35990;SDS011;22064;42.672;23.282;2022-09-24T16:33:44;12.07;;;5.03;;
35990;SDS011;22064;42.672;23.282;2022-09-24T16:36:10;12.75;;;5.57;;
35990;SDS011;22064;42.672;23.282;2022-09-24T16:38:36;16.90;;;6.63;;
35990;SDS011;22064;42.672;23.282;2022-09-24T16:41:03;11.55;;;5.40;;
35990;SDS011;22064;42.672;23.282;2022-09-24T16:43:30;12.55;;;5.15;;
35990;SDS011;22064;42.672;23.282;2022-09-24T16:46:01;15.13;;;6.30;;
35990;SDS011;22064;42.672;23.282;2022-09-24T16:48:29;13.95;;;6.20;;
35990;SDS011;22064;42.672;23.282;2022-09-24T16:53:28;14.13;;;6.10;;
35990;SDS011;22064;42.672;23.282;2022-09-24T16:56:00;18.77;;;7.50;;
35990;SDS011;22064;42.672;23.282;2022-09-24T16:58:27;17.58;;;7.47;;
35990;SDS011;22064;42.672;23.282;2022-09-24T17:00:53;20.55;;;8.05;;
35990;SDS011;22064;42.672;23.282;2022-09-24T17:03:18;16.23;;;6.88;;
35990;SDS011;22064;42.672;23.282;2022-09-24T17:05:44;19.65;;;7.28;;